createdAt,value
2019-03-19T00:00:26.406Z,4.85
2019-03-19T00:02:55.206Z,5.22
2019-03-19T00:05:26.700Z,8.38
2019-03-19T00:07:55.197Z,9.58
2019-03-19T00:10:23.685Z,5.47
2019-03-19T00:12:55.108Z,4.00
2019-03-19T00:15:23.642Z,5.60
2019-03-19T00:17:52.247Z,7.80
2019-03-19T00:20:20.715Z,4.83
2019-03-19T00:22:49.539Z,7.17
2019-03-19T00:25:29.121Z,5.22
2019-03-19T00:27:48.313Z,8.13
2019-03-19T00:30:17.827Z,8.98
2019-03-19T00:32:46.297Z,7.12
2019-03-19T00:35:14.843Z,5.67
2019-03-19T00:37:43.334Z,10.15
2019-03-19T00:40:12.963Z,8.98
2019-03-19T00:42:41.489Z,7.47
2019-03-19T00:45:11.456Z,6.15
2019-03-19T00:47:40.041Z,5.22
2019-03-19T00:50:12.625Z,6.80
2019-03-19T00:52:41.135Z,5.80
2019-03-19T00:55:09.829Z,9.95
2019-03-19T00:57:38.374Z,7.22
2019-03-19T01:00:10.190Z,10.38
2019-03-19T01:02:39.184Z,7.08
2019-03-19T01:05:08.676Z,8.15
2019-03-19T01:07:37.215Z,7.62
2019-03-19T01:10:08.578Z,5.95
2019-03-19T01:12:40.052Z,6.03
2019-03-19T01:15:10.529Z,6.55
2019-03-19T01:17:39.076Z,7.28
2019-03-19T01:20:12.422Z,10.15
2019-03-19T01:22:40.883Z,8.95
2019-03-19T01:25:10.113Z,11.22
2019-03-19T01:27:40.016Z,8.85
2019-03-19T01:30:11.492Z,8.25
2019-03-19T01:32:40.010Z,6.87
2019-03-19T01:35:08.739Z,7.72
2019-03-19T01:37:41.838Z,9.10
2019-03-19T01:40:12.521Z,7.67
2019-03-19T01:42:42.713Z,7.53
2019-03-19T01:45:12.133Z,9.10
2019-03-19T01:47:40.607Z,7.05
2019-03-19T01:50:15.816Z,6.50
2019-03-19T01:52:48.773Z,7.92
2019-03-19T01:55:17.305Z,6.90
2019-03-19T01:57:45.951Z,5.55
2019-03-19T02:00:15.778Z,13.65
2019-03-19T02:02:44.537Z,8.58
2019-03-19T02:05:13.140Z,9.38
2019-03-19T02:07:41.612Z,6.08
2019-03-19T02:10:13.841Z,5.70
2019-03-19T02:12:42.311Z,6.30
2019-03-19T02:15:17.623Z,14.28
2019-03-19T02:17:46.164Z,7.22
2019-03-19T02:20:15.575Z,7.15
2019-03-19T02:22:44.906Z,10.13
2019-03-19T02:25:13.399Z,6.85
2019-03-19T02:27:41.988Z,7.78
2019-03-19T02:30:17.664Z,6.85
2019-03-19T02:32:46.244Z,9.23
2019-03-19T02:35:14.786Z,5.17
2019-03-19T02:37:43.337Z,7.28
2019-03-19T02:40:14.224Z,5.67
2019-03-19T02:42:42.653Z,6.05
2019-03-19T02:45:12.535Z,5.33
2019-03-19T02:47:41.013Z,5.65
2019-03-19T02:50:16.646Z,10.05
2019-03-19T02:52:45.170Z,5.53
2019-03-19T02:55:13.665Z,6.35
2019-03-19T02:57:42.486Z,6.50
2019-03-19T03:00:17.413Z,4.30
2019-03-19T03:02:45.970Z,5.95
2019-03-19T03:05:21.371Z,8.08
2019-03-19T03:07:49.803Z,6.10
2019-03-19T03:10:18.474Z,5.28
2019-03-19T03:12:46.997Z,5.15
2019-03-19T03:15:15.654Z,9.25
2019-03-19T03:17:46.946Z,7.10
2019-03-19T03:20:19.372Z,8.40
2019-03-19T03:22:47.902Z,6.75
2019-03-19T03:25:17.293Z,10.28
2019-03-19T03:27:45.851Z,11.12
2019-03-19T03:30:23.659Z,7.20
2019-03-19T03:32:52.526Z,4.35
2019-03-19T03:35:21.065Z,7.62
2019-03-19T03:37:49.690Z,6.70
2019-03-19T03:40:21.928Z,7.67
2019-03-19T03:42:50.551Z,8.55
2019-03-19T03:45:19.801Z,5.67
2019-03-19T03:47:48.256Z,5.40
2019-03-19T03:50:17.480Z,6.05
2019-03-19T03:52:45.989Z,10.38
2019-03-19T03:55:18.558Z,7.62
2019-03-19T03:57:47.298Z,7.62
2019-03-19T04:00:18.426Z,8.53
2019-03-19T04:02:46.997Z,8.20
2019-03-19T04:05:15.597Z,7.03
2019-03-19T04:07:44.678Z,7.35
2019-03-19T04:10:15.290Z,9.23
2019-03-19T04:12:43.886Z,6.45
2019-03-19T04:15:13.847Z,8.93
2019-03-19T04:17:42.503Z,9.48
2019-03-19T04:20:13.090Z,7.83
2019-03-19T04:22:41.713Z,9.78
2019-03-19T04:25:10.811Z,7.62
2019-03-19T04:27:40.708Z,7.80
2019-03-19T04:30:20.753Z,9.23
2019-03-19T04:32:49.354Z,8.95
2019-03-19T04:35:18.244Z,9.85
2019-03-19T04:37:46.731Z,9.38
2019-03-19T04:40:15.938Z,10.63
2019-03-19T04:42:45.059Z,10.35
2019-03-19T04:45:15.764Z,10.20
2019-03-19T04:47:44.635Z,8.30
2019-03-19T04:50:14.067Z,8.88
2019-03-19T04:52:42.725Z,9.00
2019-03-19T04:55:16.134Z,10.75
2019-03-19T04:57:44.810Z,7.12
2019-03-19T05:00:18.225Z,9.18
2019-03-19T05:02:46.866Z,14.30
2019-03-19T05:05:15.482Z,9.35
2019-03-19T05:07:44.019Z,12.78
2019-03-19T05:10:17.571Z,40.33
2019-03-19T05:12:46.254Z,48.65
2019-03-19T05:15:15.159Z,40.45
2019-03-19T05:17:43.614Z,13.68
2019-03-19T05:20:13.110Z,13.65
2019-03-19T05:22:41.623Z,12.63
2019-03-19T05:25:10.754Z,15.65
2019-03-19T05:27:39.195Z,12.70
2019-03-19T05:30:15.673Z,15.90
2019-03-19T05:32:44.254Z,6.58
2019-03-19T05:35:12.833Z,6.08
2019-03-19T05:37:41.435Z,6.40
2019-03-19T05:40:13.786Z,8.10
2019-03-19T05:42:42.263Z,9.80
2019-03-19T05:45:12.208Z,7.30
2019-03-19T05:47:41.021Z,12.55
2019-03-19T05:50:12.546Z,11.55
2019-03-19T05:52:41.320Z,7.12
2019-03-19T05:55:10.106Z,7.37
2019-03-19T05:57:48.843Z,11.35
2019-03-19T06:00:12.184Z,7.50
2019-03-19T06:02:41.075Z,8.78
2019-03-19T06:05:13.269Z,7.00
2019-03-19T06:07:41.795Z,7.75
2019-03-19T06:10:14.098Z,6.47
2019-03-19T06:12:48.935Z,9.20
2019-03-19T06:15:17.745Z,6.40
2019-03-19T06:17:46.404Z,7.58
2019-03-19T06:20:16.318Z,7.78
2019-03-19T06:22:45.125Z,7.08
2019-03-19T06:25:13.896Z,10.30
2019-03-19T06:27:42.586Z,6.97
2019-03-19T06:30:19.276Z,6.75
2019-03-19T06:32:47.845Z,8.25
2019-03-19T06:35:19.184Z,6.42
2019-03-19T06:37:47.634Z,6.45
2019-03-19T06:40:25.152Z,5.78
2019-03-19T06:42:53.802Z,5.22
2019-03-19T06:45:23.223Z,6.92
2019-03-19T06:47:51.934Z,5.30
2019-03-19T06:50:21.464Z,9.65
2019-03-19T06:52:50.122Z,6.75
2019-03-19T06:55:19.460Z,8.60
2019-03-19T06:57:47.924Z,12.05
2019-03-19T07:00:23.263Z,7.03
2019-03-19T07:02:51.728Z,6.25
2019-03-19T07:05:20.675Z,6.10
2019-03-19T07:07:49.160Z,7.45
2019-03-19T07:10:18.373Z,7.65
2019-03-19T07:12:46.856Z,7.45
2019-03-19T07:15:16.453Z,6.97
2019-03-19T07:17:44.934Z,6.42
2019-03-19T07:20:18.706Z,5.10
2019-03-19T07:22:47.183Z,6.87
2019-03-19T07:25:15.855Z,6.30
2019-03-19T07:27:44.353Z,6.65
2019-03-19T07:30:15.393Z,9.85
2019-03-19T07:32:51.395Z,6.05
2019-03-19T07:35:20.010Z,6.78
2019-03-19T07:37:48.502Z,9.10
2019-03-19T07:40:17.276Z,6.17
2019-03-19T07:42:45.831Z,10.08
2019-03-19T07:45:21.687Z,8.18
2019-03-19T07:47:50.157Z,7.30
2019-03-19T07:50:23.179Z,6.37
2019-03-19T07:52:55.232Z,6.63
2019-03-19T07:55:23.785Z,6.83
2019-03-19T07:57:52.288Z,5.22
2019-03-19T08:00:21.803Z,6.67
2019-03-19T08:02:50.269Z,6.17
2019-03-19T08:05:18.759Z,6.45
2019-03-19T08:07:47.217Z,4.53
2019-03-19T08:10:20.223Z,4.08
2019-03-19T08:12:48.769Z,10.00
2019-03-19T08:15:18.194Z,4.65
2019-03-19T08:17:46.658Z,6.03
2019-03-19T08:20:15.785Z,8.25
2019-03-19T08:22:45.329Z,4.75
2019-03-19T08:25:14.757Z,3.92
2019-03-19T08:27:43.447Z,4.12
2019-03-19T08:30:17.090Z,5.67
2019-03-19T08:32:45.567Z,4.62
2019-03-19T08:35:15.275Z,5.33
2019-03-19T08:37:43.832Z,8.05
2019-03-19T08:40:16.208Z,6.35
2019-03-19T08:42:44.715Z,3.35
2019-03-19T08:45:17.913Z,10.43
2019-03-19T08:47:46.405Z,4.08
2019-03-19T08:50:18.147Z,3.27
2019-03-19T08:52:46.760Z,4.78
2019-03-19T08:55:15.298Z,2.60
2019-03-19T08:57:43.932Z,3.15
2019-03-19T09:00:20.306Z,3.20
2019-03-19T09:02:48.802Z,4.25
2019-03-19T09:05:17.264Z,5.85
2019-03-19T09:07:45.826Z,4.35
2019-03-19T09:10:20.953Z,3.08
2019-03-19T09:12:49.508Z,4.05
2019-03-19T09:15:19.323Z,4.97
2019-03-19T09:17:47.799Z,5.28
2019-03-19T09:20:19.380Z,3.72
2019-03-19T09:22:47.857Z,2.77
2019-03-19T09:25:16.363Z,4.78
2019-03-19T09:27:44.829Z,3.50
2019-03-19T09:30:17.486Z,2.08
2019-03-19T09:32:46.022Z,2.83
2019-03-19T09:35:14.500Z,2.60
2019-03-19T09:37:44.846Z,8.28
2019-03-19T09:40:20.253Z,3.70
2019-03-19T09:42:48.717Z,1.55
2019-03-19T09:45:17.647Z,6.50
2019-03-19T09:47:46.346Z,3.45
2019-03-19T09:50:20.952Z,1.25
2019-03-19T09:52:49.436Z,1.90
2019-03-19T09:55:17.999Z,1.90
2019-03-19T09:57:46.460Z,1.92
2019-03-19T10:00:19.083Z,3.20
2019-03-19T10:02:47.619Z,2.22
2019-03-19T10:05:16.043Z,1.92
2019-03-19T10:07:44.561Z,2.15
2019-03-19T10:10:17.727Z,1.92
2019-03-19T10:12:46.218Z,2.98
2019-03-19T10:15:15.128Z,2.75
2019-03-19T10:17:43.647Z,2.75
2019-03-19T10:20:14.171Z,3.33
2019-03-19T10:22:42.706Z,2.37
2019-03-19T10:25:17.739Z,2.60
2019-03-19T10:27:46.216Z,2.55
2019-03-19T10:30:16.616Z,2.45
2019-03-19T10:32:45.082Z,2.92
2019-03-19T10:35:13.648Z,2.85
2019-03-19T10:37:42.134Z,5.28
2019-03-19T10:40:16.235Z,3.17
2019-03-19T10:42:44.742Z,2.12
2019-03-19T10:45:18.555Z,3.17
2019-03-19T10:47:47.024Z,1.98
2019-03-19T10:50:18.993Z,2.40
2019-03-19T10:52:47.464Z,2.30
2019-03-19T10:55:15.957Z,2.27
2019-03-19T10:57:45.607Z,3.80
2019-03-19T11:00:26.909Z,3.60
2019-03-19T11:02:55.466Z,3.67
2019-03-19T11:05:24.661Z,2.05
2019-03-19T11:07:53.154Z,3.12
2019-03-19T11:10:24.180Z,2.35
2019-03-19T11:12:52.670Z,2.25
2019-03-19T11:15:25.481Z,3.10
2019-03-19T11:17:53.955Z,2.90
2019-03-19T11:20:25.372Z,1.82
2019-03-19T11:22:53.883Z,2.37
2019-03-19T11:25:26.637Z,3.52
2019-03-19T11:27:55.122Z,3.30
2019-03-19T11:30:27.577Z,3.15
2019-03-19T11:32:56.155Z,3.10
2019-03-19T11:35:24.722Z,3.20
2019-03-19T11:37:53.190Z,1.95
2019-03-19T11:40:22.010Z,5.28
2019-03-19T11:42:51.321Z,4.25
2019-03-19T11:45:22.513Z,2.20
2019-03-19T11:47:50.948Z,1.85
2019-03-19T11:50:24.459Z,1.50
2019-03-19T11:55:20.980Z,1.60
2019-03-19T11:57:51.364Z,1.45
2019-03-19T12:00:34.951Z,2.62
2019-03-19T12:05:32.967Z,1.37
2019-03-19T12:08:01.434Z,4.10
2019-03-19T12:10:29.920Z,2.50
2019-03-19T12:12:58.516Z,2.37
2019-03-19T12:15:30.967Z,5.17
2019-03-19T12:17:59.418Z,2.70
2019-03-19T12:20:28.012Z,3.67
2019-03-19T12:22:59.259Z,1.95
2019-03-19T12:25:27.874Z,2.72
2019-03-19T12:27:56.357Z,2.58
2019-03-19T12:30:26.244Z,2.05
2019-03-19T12:32:55.039Z,2.12
2019-03-19T12:35:23.480Z,2.52
2019-03-19T12:37:51.981Z,1.57
2019-03-19T12:40:24.240Z,4.72
2019-03-19T12:42:52.701Z,2.45
2019-03-19T12:45:22.117Z,2.30
2019-03-19T12:47:50.602Z,2.00
2019-03-19T12:50:20.197Z,1.92
2019-03-19T12:52:48.719Z,1.42
2019-03-19T12:55:17.312Z,2.20
2019-03-19T12:57:45.940Z,1.72
2019-03-19T13:00:20.227Z,2.45
2019-03-19T13:02:48.760Z,3.52
2019-03-19T13:05:18.180Z,3.47
2019-03-19T13:07:48.768Z,2.50
2019-03-19T13:10:24.529Z,3.60
2019-03-19T13:12:52.998Z,2.77
2019-03-19T13:15:34.563Z,10.48
2019-03-19T13:18:03.020Z,2.95
2019-03-19T13:20:37.000Z,2.87
2019-03-19T13:25:33.219Z,3.33
2019-03-19T13:28:03.351Z,4.08
2019-03-19T13:30:32.563Z,2.85
2019-03-19T13:33:10.408Z,5.30
2019-03-19T13:35:46.797Z,3.12
2019-03-19T13:38:15.288Z,3.55
2019-03-19T13:40:43.753Z,4.00
2019-03-19T13:43:12.262Z,4.42
2019-03-19T13:45:41.124Z,4.10
2019-03-19T13:48:09.709Z,3.72
2019-03-19T13:50:41.977Z,3.70
2019-03-19T13:53:10.576Z,2.47
2019-03-19T13:55:39.463Z,4.08
2019-03-19T13:58:07.901Z,3.37
2019-03-19T14:00:39.283Z,3.33
2019-03-19T14:03:07.880Z,2.83
2019-03-19T14:05:36.349Z,6.28
2019-03-19T14:08:05.000Z,3.15
2019-03-19T14:10:33.577Z,4.15
2019-03-19T14:13:02.136Z,2.60
2019-03-19T14:15:30.667Z,3.05
2019-03-19T14:17:59.220Z,2.62
2019-03-19T14:20:27.810Z,4.12
2019-03-19T14:22:56.536Z,2.37
2019-03-19T14:25:27.896Z,2.33
2019-03-19T14:27:56.463Z,2.60
2019-03-19T14:30:28.497Z,5.00
2019-03-19T14:32:57.229Z,3.75
2019-03-19T14:35:36.618Z,2.52
2019-03-19T14:37:56.002Z,4.90
2019-03-19T14:40:25.228Z,4.53
2019-03-19T14:42:53.721Z,3.87
2019-03-19T14:45:22.295Z,2.77
2019-03-19T14:47:56.670Z,2.50
2019-03-19T14:50:26.122Z,1.60
2019-03-19T14:53:00.621Z,3.65
2019-03-19T14:55:29.097Z,4.28
2019-03-19T14:57:57.663Z,2.90
2019-03-19T15:00:28.236Z,5.05
2019-03-19T15:02:56.849Z,2.67
2019-03-19T15:05:25.335Z,2.58
2019-03-19T15:07:53.827Z,2.27
2019-03-19T15:10:23.632Z,2.85
2019-03-19T15:12:52.126Z,2.45
2019-03-19T15:15:23.578Z,5.55
2019-03-19T15:17:52.050Z,7.00
2019-03-19T15:20:21.649Z,10.72
2019-03-19T15:22:50.100Z,3.47
2019-03-19T15:25:19.042Z,7.70
2019-03-19T15:27:50.347Z,5.62
2019-03-19T15:30:19.554Z,2.22
2019-03-19T15:32:48.098Z,4.62
2019-03-19T15:35:16.693Z,11.15
2019-03-19T15:37:45.243Z,2.22
2019-03-19T15:40:20.464Z,11.28
2019-03-19T15:42:49.277Z,2.45
2019-03-19T15:45:26.012Z,3.62
2019-03-19T15:47:54.563Z,3.22
2019-03-19T15:50:23.206Z,3.70
2019-03-19T15:52:51.648Z,9.30
2019-03-19T15:55:26.453Z,2.98
2019-03-19T15:57:55.259Z,3.45
2019-03-19T16:00:26.870Z,2.60
2019-03-19T16:02:55.564Z,2.12
2019-03-19T16:05:25.714Z,1.85
2019-03-19T16:07:57.057Z,3.30
2019-03-19T16:10:25.573Z,2.20
2019-03-19T16:12:54.204Z,4.60
2019-03-19T16:15:23.501Z,12.20
2019-03-19T16:17:51.982Z,6.15
2019-03-19T16:20:27.549Z,5.55
2019-03-19T16:22:56.067Z,3.10
2019-03-19T16:25:27.583Z,2.30
2019-03-19T16:27:56.253Z,3.10
2019-03-19T16:30:24.786Z,3.12
2019-03-19T16:32:53.490Z,4.00
2019-03-19T16:35:23.810Z,5.15
2019-03-19T16:37:55.006Z,6.12
2019-03-19T16:40:24.164Z,4.55
2019-03-19T16:42:52.688Z,2.90
2019-03-19T16:45:21.395Z,3.45
2019-03-19T16:47:49.883Z,4.10
2019-03-19T16:50:19.360Z,3.40
2019-03-19T16:52:47.855Z,7.60
2019-03-19T16:55:20.056Z,3.65
2019-03-19T16:57:48.812Z,3.30
2019-03-19T17:00:25.084Z,9.43
2019-03-19T17:02:53.691Z,2.87
2019-03-19T17:05:22.191Z,5.95
2019-03-19T17:07:50.969Z,5.85
2019-03-19T17:10:24.341Z,4.45
2019-03-19T17:12:52.861Z,4.15
2019-03-19T17:15:21.603Z,5.60
2019-03-19T17:17:50.186Z,3.02
2019-03-19T17:20:19.374Z,9.50
2019-03-19T17:22:47.968Z,6.58
2019-03-19T17:25:19.748Z,3.85
2019-03-19T17:27:48.432Z,5.25
2019-03-19T17:30:22.558Z,3.52
2019-03-19T17:32:51.109Z,7.72
2019-03-19T17:35:22.420Z,7.80
2019-03-19T17:37:50.983Z,8.20
2019-03-19T17:40:19.473Z,3.62
2019-03-19T17:42:47.949Z,6.97
2019-03-19T17:45:16.706Z,13.83
2019-03-19T17:47:45.392Z,5.08
2019-03-19T17:50:18.942Z,4.62
2019-03-19T17:52:49.480Z,7.60
2019-03-19T17:55:18.002Z,11.63
2019-03-19T17:57:46.502Z,8.15
2019-03-19T18:00:28.103Z,5.05
2019-03-19T18:02:56.672Z,9.78
2019-03-19T18:05:25.645Z,5.80
2019-03-19T18:07:54.351Z,9.00
2019-03-19T18:10:22.815Z,7.00
2019-03-19T18:12:51.489Z,8.78
2019-03-19T18:15:23.158Z,9.63
2019-03-19T18:17:51.690Z,10.00
2019-03-19T18:20:20.214Z,9.35
2019-03-19T18:22:48.806Z,13.68
2019-03-19T18:25:18.443Z,6.62
2019-03-19T18:27:47.133Z,22.70
2019-03-19T18:30:19.788Z,6.60
2019-03-19T18:32:48.339Z,9.00
2019-03-19T18:35:17.030Z,10.32
2019-03-19T18:37:45.552Z,9.85
2019-03-19T18:40:14.988Z,9.55
2019-03-19T18:42:43.465Z,5.22
2019-03-19T18:45:14.266Z,9.78
2019-03-19T18:47:42.782Z,11.55
2019-03-19T18:50:15.723Z,9.55
2019-03-19T18:52:44.361Z,7.67
2019-03-19T18:55:12.844Z,11.48
2019-03-19T18:57:41.683Z,10.38
2019-03-19T19:00:17.176Z,20.23
2019-03-19T19:02:50.369Z,16.37
2019-03-19T19:05:18.708Z,19.23
2019-03-19T19:07:47.192Z,10.18
2019-03-19T19:10:16.520Z,10.85
2019-03-19T19:12:44.978Z,7.30
2019-03-19T19:15:14.914Z,11.15
2019-03-19T19:17:43.409Z,16.05
2019-03-19T19:20:13.929Z,10.43
2019-03-19T19:22:42.571Z,19.70
2019-03-19T19:25:14.046Z,13.18
2019-03-19T19:27:42.626Z,11.28
2019-03-19T19:30:14.153Z,7.03
2019-03-19T19:32:42.685Z,8.50
2019-03-19T19:35:11.208Z,13.22
2019-03-19T19:37:39.669Z,14.75
2019-03-19T19:40:13.749Z,13.50
2019-03-19T19:42:42.287Z,9.28
2019-03-19T19:45:16.168Z,9.70
2019-03-19T19:47:44.652Z,17.40
2019-03-19T19:50:15.847Z,31.17
2019-03-19T19:52:44.322Z,31.80
2019-03-19T19:55:13.530Z,39.23
2019-03-19T19:57:42.108Z,39.63
2019-03-19T20:00:13.710Z,26.05
2019-03-19T20:02:42.371Z,22.00
2019-03-19T20:05:10.843Z,15.48
2019-03-19T20:07:39.535Z,15.98
2019-03-19T20:10:11.319Z,13.93
2019-03-19T20:12:39.806Z,10.95
2019-03-19T20:15:10.210Z,9.05
2019-03-19T20:17:38.785Z,11.73
2019-03-19T20:20:10.667Z,9.60
2019-03-19T20:22:39.806Z,11.97
2019-03-19T20:25:08.317Z,8.63
2019-03-19T20:27:36.882Z,9.00
2019-03-19T20:30:20.189Z,7.90
2019-03-19T20:32:48.667Z,11.10
2019-03-19T20:35:18.811Z,12.18
2019-03-19T20:37:47.275Z,10.35
2019-03-19T20:40:16.312Z,10.58
2019-03-19T20:42:44.952Z,8.25
2019-03-19T20:45:16.924Z,12.95
2019-03-19T20:47:47.285Z,9.60
2019-03-19T20:50:18.762Z,6.83
2019-03-19T20:52:47.268Z,6.58
2019-03-19T20:55:15.879Z,6.35
2019-03-19T20:57:44.354Z,9.43
2019-03-19T21:00:17.279Z,6.30
2019-03-19T21:02:45.754Z,8.30
2019-03-19T21:05:14.391Z,9.40
2019-03-19T21:07:42.865Z,11.50
2019-03-19T21:10:21.843Z,10.68
2019-03-19T21:12:50.406Z,9.55
2019-03-19T21:15:21.734Z,10.98
2019-03-19T21:17:50.211Z,5.10
2019-03-19T21:20:18.781Z,5.50
2019-03-19T21:22:47.422Z,10.82
2019-03-19T21:25:15.864Z,7.58
2019-03-19T21:27:44.356Z,7.47
2019-03-19T21:30:18.970Z,7.90
2019-03-19T21:32:47.644Z,5.17
2019-03-19T21:35:21.061Z,7.08
2019-03-19T21:37:49.864Z,6.67
2019-03-19T21:40:18.310Z,5.33
2019-03-19T21:42:46.821Z,6.12
2019-03-19T21:45:16.732Z,10.00
2019-03-19T21:47:45.330Z,8.28
2019-03-19T21:50:16.495Z,7.97
2019-03-19T21:52:44.977Z,11.57
2019-03-19T21:55:14.326Z,7.67
2019-03-19T21:57:43.088Z,6.22
2019-03-19T22:00:14.160Z,9.08
2019-03-19T22:02:42.644Z,7.45
2019-03-19T22:05:11.128Z,9.20
2019-03-19T22:07:39.597Z,5.70
2019-03-19T22:10:22.107Z,6.40
2019-03-19T22:12:50.595Z,5.20
2019-03-19T22:15:21.758Z,5.67
2019-03-19T22:17:50.432Z,6.00
2019-03-19T22:20:24.651Z,5.60
2019-03-19T22:22:53.103Z,8.08
2019-03-19T22:25:21.902Z,5.80
2019-03-19T22:27:50.367Z,7.03
2019-03-19T22:30:19.848Z,6.40
2019-03-19T22:32:48.411Z,12.13
2019-03-19T22:35:16.972Z,6.00
2019-03-19T22:37:45.600Z,7.15
2019-03-19T22:40:18.877Z,6.83
2019-03-19T22:42:47.522Z,5.97
2019-03-19T22:45:26.160Z,5.05
2019-03-19T22:47:54.846Z,8.53
2019-03-19T22:50:23.539Z,6.80
2019-03-19T22:52:51.970Z,5.15
2019-03-19T22:55:28.945Z,6.67
2019-03-19T22:57:52.336Z,11.35
2019-03-19T23:00:29.338Z,6.78
2019-03-19T23:02:58.024Z,5.85
2019-03-19T23:05:26.688Z,6.22
2019-03-19T23:07:55.573Z,6.90
2019-03-19T23:10:24.084Z,8.63
2019-03-19T23:12:52.668Z,4.37
2019-03-19T23:15:21.355Z,7.55
2019-03-19T23:17:50.189Z,7.30
2019-03-19T23:20:18.927Z,5.60
2019-03-19T23:22:50.386Z,7.47
2019-03-19T23:25:19.071Z,6.92
2019-03-19T23:27:47.861Z,13.65
2019-03-19T23:30:19.755Z,9.98
2019-03-19T23:32:48.501Z,8.43
2019-03-19T23:35:17.074Z,7.03
2019-03-19T23:37:47.813Z,6.97
2019-03-19T23:40:18.201Z,8.53
2019-03-19T23:42:46.988Z,5.90
2019-03-19T23:45:15.760Z,8.63
2019-03-19T23:47:44.410Z,7.40
2019-03-19T23:50:19.031Z,8.73
2019-03-19T23:52:47.487Z,8.33
2019-03-19T23:55:16.299Z,10.40
2019-03-19T23:57:47.906Z,6.33
